createdAt,value
2022-10-09T00:04:53.585Z,13.71
2022-10-09T00:09:59.678Z,13.94
2022-10-09T00:15:04.790Z,13.97
2022-10-09T00:20:07.774Z,13.90
2022-10-09T00:25:12.750Z,13.66
2022-10-09T00:30:14.721Z,13.81
2022-10-09T00:35:18.343Z,13.66
2022-10-09T00:40:18.864Z,13.72
2022-10-09T00:45:22.028Z,13.67
2022-10-09T00:50:40.371Z,13.33
2022-10-09T00:55:50.148Z,13.25
2022-10-09T01:00:52.948Z,13.28
2022-10-09T01:05:58.128Z,13.59
2022-10-09T01:11:15.020Z,13.03
2022-10-09T01:16:26.981Z,13.20
2022-10-09T01:22:06.389Z,13.22
2022-10-09T01:27:10.122Z,13.16
2022-10-09T01:32:11.552Z,13.04
2022-10-09T01:37:18.073Z,12.92
2022-10-09T01:42:19.957Z,13.35
2022-10-09T01:47:21.917Z,13.02
2022-10-09T01:52:46.143Z,13.32
2022-10-09T01:57:48.996Z,13.15
2022-10-09T02:02:47.905Z,12.85
2022-10-09T02:07:49.173Z,12.73
2022-10-09T02:13:26.169Z,12.32
2022-10-09T02:19:00.418Z,12.40
2022-10-09T02:24:17.011Z,12.73
2022-10-09T02:29:20.124Z,12.59
2022-10-09T02:34:39.075Z,12.67
2022-10-09T02:39:42.232Z,12.86
2022-10-09T02:44:43.281Z,12.88
2022-10-09T02:49:45.340Z,12.84
2022-10-09T02:54:49.879Z,12.72
2022-10-09T02:59:49.111Z,12.79
2022-10-09T03:04:52.025Z,13.01
2022-10-09T03:09:53.533Z,12.79
2022-10-09T03:14:57.804Z,12.68
2022-10-09T03:20:05.863Z,12.48
2022-10-09T03:25:09.459Z,12.20
2022-10-09T03:30:10.480Z,12.21
2022-10-09T03:35:11.386Z,12.15
2022-10-09T03:40:20.220Z,11.94
2022-10-09T03:45:34.811Z,12.15
2022-10-09T03:56:03.505Z,12.34
2022-10-09T04:01:05.355Z,12.64
2022-10-09T04:06:14.675Z,12.45
2022-10-09T04:11:18.102Z,12.38
2022-10-09T04:16:28.651Z,12.36
2022-10-09T04:21:29.423Z,12.39
2022-10-09T04:26:30.786Z,12.40
2022-10-09T04:31:30.331Z,12.43
2022-10-09T04:36:44.254Z,12.23
2022-10-09T04:41:44.147Z,12.41
2022-10-09T04:46:45.320Z,12.50
2022-10-09T04:51:47.101Z,12.46
2022-10-09T04:56:46.959Z,12.49
2022-10-09T05:01:49.425Z,12.41
2022-10-09T05:06:54.524Z,12.64
2022-10-09T05:11:56.625Z,12.97
2022-10-09T05:17:13.025Z,12.59
2022-10-09T05:22:17.555Z,12.80
2022-10-09T05:27:19.455Z,12.97
2022-10-09T05:32:22.765Z,13.22
2022-10-09T05:37:26.238Z,13.05
2022-10-09T05:48:25.093Z,13.24
2022-10-09T05:53:36.903Z,13.35
2022-10-09T05:58:43.067Z,13.37
2022-10-09T06:03:45.965Z,13.36
2022-10-09T06:08:50.468Z,13.43
2022-10-09T06:13:54.207Z,13.40
2022-10-09T06:18:56.322Z,13.62
2022-10-09T06:23:58.070Z,13.56
2022-10-09T06:28:58.419Z,13.92
2022-10-09T06:34:05.690Z,14.13
2022-10-09T06:39:07.680Z,14.31
2022-10-09T06:44:16.568Z,14.39
2022-10-09T06:49:16.116Z,14.56
2022-10-09T06:54:19.004Z,14.62
2022-10-09T06:59:21.311Z,14.91
2022-10-09T07:04:20.081Z,15.05
2022-10-09T07:09:22.610Z,15.36
2022-10-09T07:14:21.875Z,15.31
2022-10-09T07:19:34.635Z,15.75
2022-10-09T07:24:34.003Z,15.83
2022-10-09T07:29:34.427Z,16.22
2022-10-09T07:34:37.204Z,16.02
2022-10-09T07:39:35.788Z,16.13
2022-10-09T07:44:34.555Z,16.48
2022-10-09T07:49:35.765Z,16.66
2022-10-09T07:54:40.715Z,16.76
2022-10-09T07:59:38.548Z,17.13
2022-10-09T08:04:37.419Z,17.07
2022-10-09T08:09:36.578Z,17.39
2022-10-09T08:14:38.643Z,17.61
2022-10-09T08:19:40.200Z,17.97
2022-10-09T08:24:47.305Z,17.92
2022-10-09T08:29:46.255Z,18.03
2022-10-09T08:34:47.015Z,18.21
2022-10-09T08:39:46.470Z,18.50
2022-10-09T08:44:53.373Z,18.70
2022-10-09T08:50:03.247Z,18.85
2022-10-09T08:55:11.668Z,19.09
2022-10-09T09:00:20.069Z,18.94
2022-10-09T09:05:27.746Z,19.53
2022-10-09T09:10:54.503Z,19.35
2022-10-09T09:16:16.755Z,19.81
2022-10-09T09:21:25.658Z,19.73
2022-10-09T09:26:23.773Z,19.97
2022-10-09T09:31:37.032Z,20.33
2022-10-09T09:37:03.910Z,20.64
2022-10-09T09:42:16.291Z,20.60
2022-10-09T09:47:45.752Z,20.70
2022-10-09T09:52:47.081Z,21.02
2022-10-09T09:57:47.643Z,21.18
2022-10-09T10:02:50.221Z,21.47
2022-10-09T10:07:51.884Z,21.61
2022-10-09T10:12:52.484Z,21.94
2022-10-09T10:17:58.136Z,21.88
2022-10-09T10:22:58.058Z,22.04
2022-10-09T10:28:08.378Z,22.04
2022-10-09T10:33:21.516Z,21.99
2022-10-09T10:38:48.552Z,22.49
2022-10-09T10:44:01.949Z,22.52
2022-10-09T10:49:03.702Z,22.45
2022-10-09T10:54:13.413Z,22.87
2022-10-09T10:59:22.280Z,23.08
2022-10-09T11:04:36.724Z,23.04
2022-10-09T11:10:07.847Z,23.17
2022-10-09T11:15:41.734Z,23.14
2022-10-09T11:20:47.330Z,23.26
2022-10-09T11:25:57.859Z,23.32
2022-10-09T11:31:21.803Z,23.29
2022-10-09T11:36:22.662Z,23.42
2022-10-09T11:41:23.968Z,23.63
2022-10-09T11:46:32.909Z,23.75
2022-10-09T11:51:36.658Z,23.87
2022-10-09T11:56:35.145Z,23.69
2022-10-09T12:01:41.905Z,23.41
2022-10-09T12:06:52.520Z,23.43
2022-10-09T12:12:09.264Z,23.71
2022-10-09T12:17:33.472Z,23.43
2022-10-09T12:22:37.777Z,23.73
2022-10-09T12:27:39.845Z,23.65
2022-10-09T12:32:42.786Z,23.69
2022-10-09T12:37:45.191Z,23.89
2022-10-09T12:42:46.205Z,24.20
2022-10-09T12:47:47.906Z,24.21
2022-10-09T12:52:58.248Z,24.30
2022-10-09T12:58:03.557Z,24.33
2022-10-09T13:03:04.772Z,24.39
2022-10-09T13:08:21.484Z,24.35
2022-10-09T13:13:25.730Z,24.24
2022-10-09T13:18:23.452Z,24.40
2022-10-09T13:23:34.020Z,24.37
2022-10-09T13:28:34.575Z,24.47
2022-10-09T13:33:40.764Z,24.36
2022-10-09T13:38:39.682Z,24.65
2022-10-09T13:43:40.601Z,24.75
2022-10-09T13:48:42.592Z,24.53
2022-10-09T13:53:43.328Z,24.70
2022-10-09T13:58:42.184Z,24.51
2022-10-09T14:03:40.978Z,24.91
2022-10-09T14:08:39.607Z,25.65
2022-10-09T14:13:41.294Z,27.29
2022-10-09T14:18:42.144Z,26.73
2022-10-09T14:23:42.616Z,25.43
2022-10-09T14:28:46.241Z,24.90
2022-10-09T14:33:45.211Z,24.51
2022-10-09T14:38:43.789Z,24.34
2022-10-09T14:43:42.034Z,24.14
2022-10-09T14:48:42.812Z,23.95
2022-10-09T14:53:43.768Z,23.82
2022-10-09T14:58:44.466Z,23.54
2022-10-09T15:03:46.266Z,23.52
2022-10-09T15:08:49.703Z,23.29
2022-10-09T15:13:51.984Z,23.28
2022-10-09T15:18:56.033Z,22.92
2022-10-09T15:23:57.953Z,22.75
2022-10-09T15:28:55.877Z,22.42
2022-10-09T15:34:11.362Z,22.21
2022-10-09T15:39:33.162Z,22.13
2022-10-09T15:50:24.466Z,21.79
2022-10-09T15:55:24.903Z,21.69
2022-10-09T16:00:35.855Z,21.25
2022-10-09T16:06:09.132Z,20.97
2022-10-09T16:11:25.301Z,21.12
2022-10-09T16:16:38.238Z,20.75
2022-10-09T16:21:37.980Z,20.64
2022-10-09T16:26:47.488Z,20.54
2022-10-09T16:31:57.885Z,20.73
2022-10-09T16:42:43.653Z,20.44
2022-10-09T16:54:01.093Z,20.15
2022-10-09T16:59:38.706Z,20.37
2022-10-09T17:04:52.965Z,20.42
2022-10-09T17:10:09.921Z,20.41
2022-10-09T17:15:54.419Z,20.21
2022-10-09T17:21:18.164Z,20.07
2022-10-09T17:26:23.656Z,19.98
2022-10-09T17:31:37.141Z,20.18
2022-10-09T17:36:48.408Z,19.80
2022-10-09T17:47:10.550Z,19.34
2022-10-09T17:57:43.347Z,18.96
2022-10-09T18:02:41.911Z,18.87
2022-10-09T18:07:42.426Z,18.78
2022-10-09T18:13:22.251Z,18.70
2022-10-09T18:18:41.836Z,18.61
2022-10-09T18:23:42.159Z,18.65
2022-10-09T18:28:59.942Z,18.77
2022-10-09T18:33:59.435Z,18.51
2022-10-09T18:39:11.162Z,18.31
2022-10-09T18:44:20.380Z,17.94
2022-10-09T18:49:33.061Z,18.28
2022-10-09T18:54:31.178Z,18.31
2022-10-09T18:59:31.920Z,18.06
2022-10-09T19:04:34.918Z,18.27
2022-10-09T19:16:10.172Z,17.92
2022-10-09T19:21:14.347Z,18.04
2022-10-09T19:32:00.062Z,18.07
2022-10-09T19:36:59.570Z,18.06
2022-10-09T19:41:58.482Z,18.10
2022-10-09T19:49:38.934Z,18.27
2022-10-09T19:52:33.107Z,18.17
2022-10-09T19:58:09.263Z,18.40
2022-10-09T20:03:12.716Z,18.66
2022-10-09T20:08:13.980Z,18.61
2022-10-09T20:13:42.910Z,18.90
2022-10-09T20:18:55.384Z,19.08
2022-10-09T20:24:00.588Z,19.19
2022-10-09T20:29:16.579Z,19.00
2022-10-09T20:34:34.898Z,18.07
2022-10-09T20:39:38.180Z,18.06
2022-10-09T20:44:36.210Z,18.20
2022-10-09T20:49:36.600Z,17.81
2022-10-09T20:54:37.844Z,17.66
2022-10-09T20:59:36.974Z,17.89
2022-10-09T21:04:34.839Z,17.78
2022-10-09T21:09:33.509Z,17.62
2022-10-09T21:14:33.696Z,17.55
2022-10-09T21:19:31.796Z,17.08
2022-10-09T21:24:33.552Z,17.20
2022-10-09T21:29:31.297Z,17.08
2022-10-09T21:34:42.038Z,17.07
2022-10-09T21:39:44.175Z,17.16
2022-10-09T21:44:44.320Z,16.86
2022-10-09T21:49:42.181Z,17.01
2022-10-09T21:54:42.129Z,16.73
2022-10-09T21:59:41.437Z,16.66
2022-10-09T22:04:41.787Z,16.57
2022-10-09T22:09:42.592Z,16.91
2022-10-09T22:14:43.680Z,16.59
2022-10-09T22:19:41.512Z,16.45
2022-10-09T22:24:40.027Z,16.46
2022-10-09T22:29:38.494Z,15.98
2022-10-09T22:34:38.712Z,16.26
2022-10-09T22:39:36.715Z,16.04
2022-10-09T22:44:39.047Z,16.17
2022-10-09T22:49:37.301Z,16.03
2022-10-09T22:54:36.095Z,16.17
2022-10-09T22:59:37.079Z,16.07
2022-10-09T23:04:38.101Z,16.06
2022-10-09T23:09:38.685Z,15.94
2022-10-09T23:14:37.515Z,16.02
2022-10-09T23:19:44.557Z,15.75
2022-10-09T23:24:46.387Z,15.62
2022-10-09T23:29:52.058Z,15.67
2022-10-09T23:34:56.056Z,15.51
2022-10-09T23:40:02.826Z,15.59
2022-10-09T23:45:04.196Z,15.49
2022-10-09T23:50:07.045Z,15.47
2022-10-09T23:55:08.972Z,15.50
